createdAt,value
2022-12-18T03:46:54.956Z,93.70
2022-12-18T03:50:55.795Z,93.91
2022-12-18T03:52:04.483Z,94.44
2022-12-18T03:58:55.389Z,93.76
2022-12-18T04:00:03.200Z,93.98
2022-12-18T04:01:36.121Z,93.76
2022-12-18T04:01:56.888Z,93.44
2022-12-18T04:03:30.443Z,92.87
2022-12-18T04:04:29.222Z,93.23
2022-12-18T04:04:57.070Z,93.44
2022-12-18T04:06:37.318Z,93.12
2022-12-18T04:06:56.974Z,92.80
2022-12-18T04:08:30.562Z,92.80
2022-12-18T04:09:29.061Z,93.02
2022-12-18T04:09:56.757Z,92.70
2022-12-18T04:11:23.097Z,92.63
2022-12-18T04:11:57.199Z,92.74
2022-12-18T04:12:56.533Z,92.85
2022-12-18T04:13:56.451Z,92.74
2022-12-18T04:14:56.386Z,93.12
2022-12-18T04:15:56.506Z,93.06
2022-12-18T04:17:29.090Z,93.02
2022-12-18T04:17:56.821Z,93.02
2022-12-18T04:18:57.690Z,93.44
2022-12-18T04:19:56.379Z,93.12
2022-12-18T04:20:56.349Z,93.02
2022-12-18T04:22:02.253Z,92.91
2022-12-18T04:22:58.626Z,93.55
2022-12-18T04:23:56.314Z,93.12
2022-12-18T04:24:56.359Z,92.97
2022-12-18T04:25:56.467Z,92.80
2022-12-18T04:26:56.335Z,92.66
2022-12-18T04:27:56.362Z,92.80
2022-12-18T04:28:56.298Z,92.66
2022-12-18T04:29:56.250Z,92.13
2022-12-18T04:30:56.254Z,92.38
2022-12-18T04:31:56.265Z,92.16
2022-12-18T04:32:56.262Z,92.16
2022-12-18T04:33:56.182Z,91.85
2022-12-18T04:34:56.189Z,92.16
2022-12-18T04:36:28.879Z,92.38
2022-12-18T04:36:56.545Z,92.02
2022-12-18T04:37:56.334Z,92.13
2022-12-18T04:38:56.200Z,92.27
2022-12-18T04:39:56.235Z,92.06
2022-12-18T04:40:56.131Z,91.85
2022-12-18T04:42:29.022Z,92.06
2022-12-18T04:42:56.587Z,92.27
2022-12-18T04:43:56.343Z,91.99
2022-12-18T04:44:56.103Z,92.21
2022-12-18T04:45:56.090Z,92.21
2022-12-18T04:46:56.058Z,92.10
2022-12-18T04:47:56.071Z,91.99
2022-12-18T04:49:28.720Z,92.10
2022-12-18T04:49:56.412Z,92.32
2022-12-18T04:50:56.304Z,91.99
2022-12-18T04:51:56.074Z,92.21
2022-12-18T04:52:56.039Z,92.21
2022-12-18T04:53:56.068Z,92.06
2022-12-18T04:54:56.062Z,92.32
2022-12-18T04:55:55.993Z,92.27
2022-12-18T04:56:56.021Z,92.63
2022-12-18T04:57:55.979Z,92.74
2022-12-18T04:58:56.027Z,92.42
2022-12-18T04:59:55.979Z,92.52
2022-12-18T05:00:56.084Z,92.21
2022-12-18T05:01:55.995Z,92.52
2022-12-18T05:02:56.116Z,92.42
2022-12-18T05:03:56.016Z,92.21
2022-12-18T05:04:55.949Z,92.27
2022-12-18T05:05:55.894Z,92.38
2022-12-18T05:06:55.871Z,92.10
2022-12-18T05:07:56.665Z,92.16
2022-12-18T05:08:55.879Z,92.10
2022-12-18T05:09:55.889Z,91.96
2022-12-18T05:10:55.935Z,91.96
2022-12-18T05:11:55.833Z,92.06
2022-12-18T05:12:55.827Z,92.06
2022-12-18T05:13:55.890Z,91.85
2022-12-18T05:14:55.867Z,92.06
2022-12-18T05:15:55.895Z,91.85
2022-12-18T05:17:00.550Z,91.67
2022-12-18T05:17:57.850Z,91.89
2022-12-18T05:18:55.850Z,91.89
2022-12-18T05:19:55.793Z,92.10
2022-12-18T05:20:55.810Z,91.89
2022-12-18T05:21:55.928Z,91.89
2022-12-18T05:22:55.783Z,91.99
2022-12-18T05:23:55.761Z,92.10
2022-12-18T05:24:55.792Z,91.89
2022-12-18T05:25:55.713Z,91.74
2022-12-18T05:26:55.762Z,91.42
2022-12-18T05:27:55.727Z,91.31
2022-12-18T05:28:55.929Z,91.46
2022-12-18T05:29:55.740Z,91.42
2022-12-18T05:30:55.737Z,91.20
2022-12-18T05:31:55.704Z,91.10
2022-12-18T05:32:55.674Z,91.20
2022-12-18T05:33:55.732Z,90.93
2022-12-18T05:34:55.609Z,91.14
2022-12-18T05:35:55.816Z,90.78
2022-12-18T05:36:55.614Z,90.57
2022-12-18T05:37:56.658Z,90.89
2022-12-18T05:38:55.598Z,90.61
2022-12-18T05:39:55.628Z,90.46
2022-12-18T05:40:55.620Z,90.46
2022-12-18T05:41:55.581Z,90.40
2022-12-18T05:43:01.402Z,90.25
2022-12-18T05:43:56.650Z,90.40
2022-12-18T05:44:55.599Z,90.57
2022-12-18T05:45:55.587Z,90.25
2022-12-18T05:46:55.681Z,90.46
2022-12-18T05:47:55.565Z,90.29
2022-12-18T05:48:55.560Z,89.97
2022-12-18T05:49:55.672Z,90.14
2022-12-18T05:50:55.490Z,89.86
2022-12-18T05:51:55.516Z,89.97
2022-12-18T05:52:55.540Z,89.93
2022-12-18T05:53:55.503Z,89.93
2022-12-18T05:54:55.507Z,89.97
2022-12-18T05:55:55.435Z,90.19
2022-12-18T05:56:56.028Z,90.19
2022-12-18T05:57:55.448Z,90.19
2022-12-18T05:58:55.464Z,90.40
2022-12-18T05:59:55.486Z,90.76
2022-12-18T06:00:55.371Z,90.40
2022-12-18T06:01:55.522Z,90.82
2022-12-18T06:02:55.603Z,90.82
2022-12-18T06:03:56.279Z,91.14
2022-12-18T06:04:55.431Z,91.03
2022-12-18T06:05:55.353Z,90.93
2022-12-18T06:06:55.359Z,91.25
2022-12-18T06:07:55.396Z,90.93
2022-12-18T06:08:55.465Z,91.25
2022-12-18T06:09:55.333Z,91.36
2022-12-18T06:10:55.414Z,91.67
2022-12-18T06:11:55.336Z,91.14
2022-12-18T06:12:55.276Z,91.14
2022-12-18T06:13:58.700Z,91.20
2022-12-18T06:14:56.268Z,91.03
2022-12-18T06:15:55.414Z,91.03
2022-12-18T06:16:55.336Z,90.72
2022-12-18T06:17:55.292Z,90.40
2022-12-18T06:18:55.385Z,90.50
2022-12-18T06:19:55.254Z,90.72
2022-12-18T06:20:55.278Z,90.61
2022-12-18T06:21:55.257Z,90.40
2022-12-18T06:22:56.234Z,89.90
2022-12-18T06:23:55.252Z,89.90
2022-12-18T06:24:55.171Z,89.90
2022-12-18T06:25:55.199Z,90.12
2022-12-18T06:26:56.158Z,89.69
2022-12-18T06:27:55.200Z,89.69
2022-12-18T06:28:55.162Z,90.12
2022-12-18T06:29:55.255Z,90.33
2022-12-18T06:30:55.183Z,90.65
2022-12-18T06:31:55.233Z,90.97
2022-12-18T06:32:56.961Z,91.08
2022-12-18T06:33:56.168Z,91.14
2022-12-18T06:35:28.779Z,91.08
2022-12-18T06:36:00.771Z,91.08
2022-12-18T06:36:57.336Z,91.18
2022-12-18T06:37:55.088Z,90.86
2022-12-18T06:38:55.094Z,91.08
2022-12-18T06:39:55.125Z,91.18
2022-12-18T06:40:54.994Z,91.08
2022-12-18T06:42:27.719Z,90.97
2022-12-18T06:42:55.394Z,91.08
2022-12-18T06:43:59.517Z,90.76
2022-12-18T06:44:56.059Z,90.58
2022-12-18T06:45:55.025Z,90.58
2022-12-18T06:46:54.999Z,90.48
2022-12-18T06:47:54.998Z,90.65
2022-12-18T06:48:55.004Z,90.91
2022-12-18T06:49:54.968Z,90.48
2022-12-18T06:50:54.994Z,90.31
2022-12-18T06:51:54.986Z,90.26
2022-12-18T06:52:54.908Z,89.52
2022-12-18T06:53:55.028Z,89.77
2022-12-18T06:54:54.883Z,89.62
2022-12-18T06:55:54.961Z,89.77
2022-12-18T06:56:54.948Z,90.16
2022-12-18T06:57:54.961Z,89.98
2022-12-18T06:58:54.961Z,89.17
2022-12-18T06:59:54.890Z,88.64
2022-12-18T07:00:54.986Z,88.85
2022-12-18T07:01:55.028Z,89.28
2022-12-18T07:02:55.043Z,89.06
2022-12-18T07:03:54.923Z,89.49
2022-12-18T07:04:54.869Z,89.49
2022-12-18T07:05:54.822Z,89.64
2022-12-18T07:06:54.873Z,89.17
2022-12-18T07:07:54.797Z,89.75
2022-12-18T07:08:54.916Z,89.96
2022-12-18T07:09:54.753Z,89.42
2022-12-18T07:10:56.357Z,89.21
2022-12-18T07:11:54.771Z,89.21
2022-12-18T07:12:54.732Z,89.32
2022-12-18T07:13:54.838Z,89.42
2022-12-18T07:14:54.780Z,90.17
2022-12-18T07:15:54.798Z,89.85
2022-12-18T07:16:54.841Z,89.85
2022-12-18T07:17:54.773Z,89.96
2022-12-18T07:18:54.742Z,89.92
2022-12-18T07:19:55.762Z,89.92
2022-12-18T07:20:54.804Z,89.96
2022-12-18T07:21:54.748Z,89.42
2022-12-18T07:22:56.342Z,89.32
2022-12-18T07:23:55.700Z,89.85
2022-12-18T07:24:54.785Z,89.85
2022-12-18T07:25:54.679Z,89.96
2022-12-18T07:26:54.646Z,90.06
2022-12-18T07:27:54.637Z,90.13
2022-12-18T07:28:54.631Z,90.03
2022-12-18T07:29:54.680Z,89.53
2022-12-18T07:30:54.651Z,89.21
2022-12-18T07:31:54.678Z,89.21
2022-12-18T07:32:54.543Z,89.96
2022-12-18T07:33:54.633Z,90.17
2022-12-18T07:34:54.561Z,90.03
2022-12-18T07:39:21.558Z,89.81
2022-12-18T07:40:29.289Z,89.92
2022-12-18T07:41:29.173Z,89.32
2022-12-18T07:42:21.566Z,89.70
2022-12-18T07:43:21.546Z,90.13
2022-12-18T07:44:21.530Z,90.28
2022-12-18T07:45:29.275Z,89.70
2022-12-18T07:46:21.599Z,89.81
2022-12-18T07:47:21.447Z,89.81
2022-12-18T07:48:21.497Z,90.03
2022-12-18T07:49:21.390Z,89.28
2022-12-18T07:50:29.176Z,89.92
2022-12-18T07:51:29.088Z,89.03
2022-12-18T07:52:29.223Z,89.34
2022-12-18T07:53:30.033Z,89.34
2022-12-18T07:54:56.529Z,89.24
2022-12-18T07:55:22.827Z,89.13
2022-12-18T07:56:55.092Z,89.24
2022-12-18T07:57:48.883Z,89.88
2022-12-18T07:58:57.303Z,89.98
2022-12-18T07:59:57.071Z,89.67
2022-12-18T08:00:23.393Z,89.17
2022-12-18T08:01:55.160Z,89.28
2022-12-18T08:02:22.817Z,89.28
2022-12-18T08:03:55.200Z,89.39
2022-12-18T08:04:56.136Z,89.92
2022-12-18T08:05:22.977Z,90.03
2022-12-18T08:06:55.163Z,89.92
2022-12-18T08:07:22.618Z,89.77
2022-12-18T08:08:22.666Z,89.67
2022-12-18T08:09:56.225Z,89.88
2022-12-18T08:10:55.085Z,89.92
2022-12-18T08:11:49.011Z,89.98
2022-12-18T08:12:22.569Z,90.20
2022-12-18T08:15:37.863Z,89.77
2022-12-18T08:16:46.026Z,89.73
2022-12-18T08:19:26.288Z,89.20
2022-12-18T08:20:34.258Z,89.09
2022-12-18T08:23:45.501Z,88.45
2022-12-18T08:24:53.847Z,88.88
2022-12-18T08:25:52.689Z,88.45
2022-12-18T08:27:29.342Z,88.35
2022-12-18T08:27:47.463Z,88.17
2022-12-18T08:29:21.786Z,88.49
2022-12-18T08:29:46.402Z,88.60
2022-12-18T08:31:18.917Z,88.60
2022-12-18T08:31:46.420Z,88.35
2022-12-18T08:33:18.715Z,87.92
2022-12-18T08:33:46.395Z,88.56
2022-12-18T08:35:20.028Z,88.88
2022-12-18T08:36:12.661Z,88.67
2022-12-18T08:37:18.595Z,88.98
2022-12-18T08:38:12.735Z,88.35
2022-12-18T08:39:18.639Z,88.77
2022-12-18T08:40:19.675Z,88.45
2022-12-18T08:40:46.861Z,87.85
2022-12-18T08:41:46.345Z,87.32
2022-12-18T08:42:46.064Z,87.68
2022-12-18T08:44:18.704Z,88.00
2022-12-18T08:45:14.737Z,87.79
2022-12-18T08:46:18.734Z,87.89
2022-12-18T08:46:46.340Z,87.89
2022-12-18T08:47:46.246Z,88.43
2022-12-18T08:49:18.643Z,88.64
